Fogelsville, Pennsylvania
Current Conditions -  °F | °C
As of 7:55 AM on Friday 19 Dec 2014 (Local Time) from KXLL Reporting Station
Overcast Overcast  
Wind Chill: 32°   Ceiling: 3400
Heat Index: 36°   Visibility: 10mi
Dew Point: 28°   Wind: 5mph
Humidity: 75%   Direction: 280°W
Pressure: 30.05"   Gusts: NA
Location:  40.58°N, 75.63°W
Report Text: KXLL 191255Z AUTO 28004KT 10SM SCT028 OVC034 02/M02 A3005 RMK AO2
Loading
Personal Weather Stations






























Interactive Weather Map New forecast layout! Learn more

10-Day Weather Forecast

Advertisements
Track Severe Weather on mobile